Huescar, Spain
Current Conditions -  °F | °C
As of 11:30 AM on Thursday 23 Oct 2014 (Local Time) from LEAM Reporting Station
Few Clouds Few Clouds  
Wind Chill: 75°   Ceiling: Unl
Heat Index: 75°   Visibility: 6mi
Dew Point: 63°   Wind: 10mph
Humidity: 65%   Direction: 90°E
Pressure: 30.21"   Gusts: NA
Location:  37.81°N, 2.54°W
Report Text: LEAM 230930Z 09009KT 060V120 9999 FEW020 24/17 Q1023
Loading
Personal Weather Stations






























Interactive Weather Map
Tropical Storm Tracking
New forecast layout! Learn more

10-Day Weather Forecast

Advertisements
Track Severe Weather on mobile